sensor_id;sensor_type;location;lat;lon;timestamp;P1;durP1;ratioP1;P2;durP2;ratioP2
46835;SDS011;32573;51.290;6.926;2022-12-18T00:01:33;7.93;;;3.22;;
46835;SDS011;32573;51.290;6.926;2022-12-18T00:04:14;8.93;;;3.85;;
46835;SDS011;32573;51.290;6.926;2022-12-18T00:06:47;9.40;;;4.20;;
46835;SDS011;32573;51.290;6.926;2022-12-18T00:09:18;8.32;;;3.65;;
46835;SDS011;32573;51.290;6.926;2022-12-18T00:11:51;10.48;;;4.13;;
46835;SDS011;32573;51.290;6.926;2022-12-18T00:14:21;6.82;;;3.08;;
46835;SDS011;32573;51.290;6.926;2022-12-18T00:16:50;8.35;;;3.60;;
46835;SDS011;32573;51.290;6.926;2022-12-18T00:19:25;9.27;;;3.67;;
46835;SDS011;32573;51.290;6.926;2022-12-18T00:21:55;8.77;;;3.83;;
46835;SDS011;32573;51.290;6.926;2022-12-18T00:24:25;8.48;;;3.67;;
46835;SDS011;32573;51.290;6.926;2022-12-18T00:26:55;6.88;;;3.45;;
46835;SDS011;32573;51.290;6.926;2022-12-18T00:29:25;8.02;;;3.95;;
46835;SDS011;32573;51.290;6.926;2022-12-18T00:31:55;6.93;;;3.38;;
46835;SDS011;32573;51.290;6.926;2022-12-18T00:34:26;8.30;;;3.78;;
46835;SDS011;32573;51.290;6.926;2022-12-18T00:36:57;6.80;;;3.78;;
46835;SDS011;32573;51.290;6.926;2022-12-18T00:39:26;7.82;;;3.38;;
46835;SDS011;32573;51.290;6.926;2022-12-18T00:41:55;8.77;;;3.90;;
46835;SDS011;32573;51.290;6.926;2022-12-18T00:44:42;8.85;;;3.95;;
46835;SDS011;32573;51.290;6.926;2022-12-18T00:47:12;6.97;;;3.25;;
46835;SDS011;32573;51.290;6.926;2022-12-18T00:49:46;9.13;;;3.90;;
46835;SDS011;32573;51.290;6.926;2022-12-18T00:52:15;8.10;;;3.60;;
46835;SDS011;32573;51.290;6.926;2022-12-18T00:54:46;9.50;;;3.55;;
46835;SDS011;32573;51.290;6.926;2022-12-18T00:57:15;8.15;;;3.70;;
46835;SDS011;32573;51.290;6.926;2022-12-18T00:59:44;8.57;;;4.20;;
46835;SDS011;32573;51.290;6.926;2022-12-18T01:02:14;8.50;;;4.22;;
46835;SDS011;32573;51.290;6.926;2022-12-18T01:04:45;9.23;;;3.63;;
46835;SDS011;32573;51.290;6.926;2022-12-18T01:07:19;10.68;;;5.00;;
46835;SDS011;32573;51.290;6.926;2022-12-18T01:09:48;10.90;;;4.68;;
46835;SDS011;32573;51.290;6.926;2022-12-18T01:12:18;8.25;;;3.83;;
46835;SDS011;32573;51.290;6.926;2022-12-18T01:14:50;8.85;;;4.00;;
46835;SDS011;32573;51.290;6.926;2022-12-18T01:17:20;9.77;;;4.68;;
46835;SDS011;32573;51.290;6.926;2022-12-18T01:19:51;10.15;;;5.10;;
46835;SDS011;32573;51.290;6.926;2022-12-18T01:22:20;8.77;;;4.03;;
46835;SDS011;32573;51.290;6.926;2022-12-18T01:24:49;9.27;;;4.80;;
46835;SDS011;32573;51.290;6.926;2022-12-18T01:27:22;11.57;;;4.68;;
46835;SDS011;32573;51.290;6.926;2022-12-18T01:29:52;8.68;;;4.22;;
46835;SDS011;32573;51.290;6.926;2022-12-18T01:32:21;8.15;;;4.25;;
46835;SDS011;32573;51.290;6.926;2022-12-18T01:34:53;7.57;;;3.75;;
46835;SDS011;32573;51.290;6.926;2022-12-18T01:37:23;8.73;;;4.70;;
46835;SDS011;32573;51.290;6.926;2022-12-18T01:39:55;10.63;;;4.65;;
46835;SDS011;32573;51.290;6.926;2022-12-18T01:42:24;11.15;;;4.60;;
46835;SDS011;32573;51.290;6.926;2022-12-18T01:44:55;9.85;;;4.82;;
46835;SDS011;32573;51.290;6.926;2022-12-18T01:47:33;8.15;;;4.20;;
46835;SDS011;32573;51.290;6.926;2022-12-18T01:50:11;10.43;;;5.00;;
46835;SDS011;32573;51.290;6.926;2022-12-18T01:52:45;9.90;;;4.63;;
46835;SDS011;32573;51.290;6.926;2022-12-18T01:55:17;9.73;;;4.53;;
46835;SDS011;32573;51.290;6.926;2022-12-18T01:57:49;11.02;;;5.43;;
46835;SDS011;32573;51.290;6.926;2022-12-18T02:00:22;8.80;;;4.43;;
46835;SDS011;32573;51.290;6.926;2022-12-18T02:02:54;9.18;;;4.25;;
46835;SDS011;32573;51.290;6.926;2022-12-18T02:05:29;9.32;;;4.45;;
46835;SDS011;32573;51.290;6.926;2022-12-18T02:08:10;9.02;;;4.15;;
46835;SDS011;32573;51.290;6.926;2022-12-18T02:10:46;10.43;;;3.65;;
46835;SDS011;32573;51.290;6.926;2022-12-18T02:13:25;8.25;;;4.18;;
46835;SDS011;32573;51.290;6.926;2022-12-18T02:16:02;7.90;;;3.83;;
46835;SDS011;32573;51.290;6.926;2022-12-18T02:18:40;9.40;;;4.07;;
46835;SDS011;32573;51.290;6.926;2022-12-18T02:21:26;9.35;;;4.60;;
46835;SDS011;32573;51.290;6.926;2022-12-18T02:24:09;8.50;;;4.18;;
46835;SDS011;32573;51.290;6.926;2022-12-18T02:26:48;9.88;;;4.20;;
46835;SDS011;32573;51.290;6.926;2022-12-18T02:29:28;8.75;;;3.70;;
46835;SDS011;32573;51.290;6.926;2022-12-18T02:32:01;9.82;;;4.05;;
46835;SDS011;32573;51.290;6.926;2022-12-18T02:34:38;12.43;;;4.40;;
46835;SDS011;32573;51.290;6.926;2022-12-18T02:37:14;10.35;;;4.55;;
46835;SDS011;32573;51.290;6.926;2022-12-18T02:39:49;11.32;;;4.65;;
46835;SDS011;32573;51.290;6.926;2022-12-18T02:42:25;7.63;;;3.88;;
46835;SDS011;32573;51.290;6.926;2022-12-18T02:44:57;7.53;;;3.60;;
46835;SDS011;32573;51.290;6.926;2022-12-18T02:47:29;9.60;;;3.60;;
46835;SDS011;32573;51.290;6.926;2022-12-18T02:50:02;8.98;;;3.80;;
46835;SDS011;32573;51.290;6.926;2022-12-18T02:52:45;8.50;;;3.80;;
46835;SDS011;32573;51.290;6.926;2022-12-18T02:55:28;7.05;;;3.30;;
46835;SDS011;32573;51.290;6.926;2022-12-18T02:58:14;8.98;;;3.60;;
46835;SDS011;32573;51.290;6.926;2022-12-18T03:00:56;7.30;;;3.00;;
46835;SDS011;32573;51.290;6.926;2022-12-18T03:03:31;8.13;;;3.88;;
46835;SDS011;32573;51.290;6.926;2022-12-18T03:06:10;7.65;;;3.40;;
46835;SDS011;32573;51.290;6.926;2022-12-18T03:08:49;6.80;;;2.90;;
46835;SDS011;32573;51.290;6.926;2022-12-18T03:11:25;7.95;;;3.17;;
46835;SDS011;32573;51.290;6.926;2022-12-18T03:14:18;5.38;;;2.40;;
46835;SDS011;32573;51.290;6.926;2022-12-18T03:16:57;6.93;;;2.70;;
46835;SDS011;32573;51.290;6.926;2022-12-18T03:19:33;7.75;;;3.35;;
46835;SDS011;32573;51.290;6.926;2022-12-18T03:22:05;5.15;;;2.63;;
46835;SDS011;32573;51.290;6.926;2022-12-18T03:24:45;5.97;;;2.78;;
46835;SDS011;32573;51.290;6.926;2022-12-18T03:27:18;7.15;;;2.72;;
46835;SDS011;32573;51.290;6.926;2022-12-18T03:29:56;6.88;;;3.00;;
46835;SDS011;32573;51.290;6.926;2022-12-18T03:32:42;7.90;;;3.22;;
46835;SDS011;32573;51.290;6.926;2022-12-18T03:35:26;8.25;;;3.22;;
46835;SDS011;32573;51.290;6.926;2022-12-18T03:38:00;7.55;;;3.53;;
46835;SDS011;32573;51.290;6.926;2022-12-18T03:40:36;10.25;;;4.00;;
46835;SDS011;32573;51.290;6.926;2022-12-18T03:43:16;8.15;;;4.32;;
46835;SDS011;32573;51.290;6.926;2022-12-18T03:45:59;12.18;;;4.50;;
46835;SDS011;32573;51.290;6.926;2022-12-18T03:48:37;10.27;;;4.20;;
46835;SDS011;32573;51.290;6.926;2022-12-18T03:51:16;7.55;;;3.72;;
46835;SDS011;32573;51.290;6.926;2022-12-18T03:53:54;10.45;;;4.32;;
46835;SDS011;32573;51.290;6.926;2022-12-18T03:56:32;7.32;;;3.47;;
46835;SDS011;32573;51.290;6.926;2022-12-18T03:59:07;6.95;;;3.05;;
46835;SDS011;32573;51.290;6.926;2022-12-18T04:01:47;6.88;;;3.13;;
46835;SDS011;32573;51.290;6.926;2022-12-18T04:04:23;5.82;;;2.88;;
46835;SDS011;32573;51.290;6.926;2022-12-18T04:06:55;5.68;;;2.70;;
46835;SDS011;32573;51.290;6.926;2022-12-18T04:09:30;4.97;;;2.58;;
46835;SDS011;32573;51.290;6.926;2022-12-18T04:12:02;8.27;;;3.30;;
46835;SDS011;32573;51.290;6.926;2022-12-18T04:14:32;6.88;;;3.10;;
46835;SDS011;32573;51.290;6.926;2022-12-18T04:17:07;7.72;;;3.10;;
46835;SDS011;32573;51.290;6.926;2022-12-18T04:19:36;6.50;;;3.03;;
46835;SDS011;32573;51.290;6.926;2022-12-18T04:22:13;7.40;;;2.95;;
46835;SDS011;32573;51.290;6.926;2022-12-18T04:24:47;5.65;;;2.85;;
46835;SDS011;32573;51.290;6.926;2022-12-18T04:27:28;10.23;;;3.63;;
46835;SDS011;32573;51.290;6.926;2022-12-18T04:29:59;7.13;;;3.28;;
46835;SDS011;32573;51.290;6.926;2022-12-18T04:32:32;10.85;;;4.03;;
46835;SDS011;32573;51.290;6.926;2022-12-18T04:35:03;8.07;;;3.30;;
46835;SDS011;32573;51.290;6.926;2022-12-18T04:37:34;6.18;;;2.95;;
46835;SDS011;32573;51.290;6.926;2022-12-18T04:40:05;6.07;;;2.72;;
46835;SDS011;32573;51.290;6.926;2022-12-18T04:42:40;6.55;;;2.47;;
46835;SDS011;32573;51.290;6.926;2022-12-18T04:45:13;5.30;;;2.58;;
46835;SDS011;32573;51.290;6.926;2022-12-18T04:47:44;7.43;;;3.08;;
46835;SDS011;32573;51.290;6.926;2022-12-18T04:50:13;7.53;;;2.78;;
46835;SDS011;32573;51.290;6.926;2022-12-18T04:52:45;4.90;;;1.98;;
46835;SDS011;32573;51.290;6.926;2022-12-18T04:55:14;6.22;;;2.70;;
46835;SDS011;32573;51.290;6.926;2022-12-18T04:57:44;6.68;;;3.13;;
46835;SDS011;32573;51.290;6.926;2022-12-18T05:00:15;5.85;;;2.75;;
46835;SDS011;32573;51.290;6.926;2022-12-18T05:02:47;6.50;;;2.70;;
46835;SDS011;32573;51.290;6.926;2022-12-18T05:05:17;6.15;;;2.38;;
46835;SDS011;32573;51.290;6.926;2022-12-18T05:07:46;6.57;;;2.70;;
46835;SDS011;32573;51.290;6.926;2022-12-18T05:10:17;6.70;;;2.88;;
46835;SDS011;32573;51.290;6.926;2022-12-18T05:12:47;5.88;;;2.60;;
46835;SDS011;32573;51.290;6.926;2022-12-18T05:15:32;5.18;;;2.30;;
46835;SDS011;32573;51.290;6.926;2022-12-18T05:18:04;6.40;;;2.22;;
46835;SDS011;32573;51.290;6.926;2022-12-18T05:20:34;7.65;;;2.83;;
46835;SDS011;32573;51.290;6.926;2022-12-18T05:23:04;6.78;;;2.90;;
46835;SDS011;32573;51.290;6.926;2022-12-18T05:25:33;10.35;;;3.25;;
46835;SDS011;32573;51.290;6.926;2022-12-18T05:28:06;5.68;;;2.20;;
46835;SDS011;32573;51.290;6.926;2022-12-18T05:30:34;4.97;;;2.20;;
46835;SDS011;32573;51.290;6.926;2022-12-18T05:33:09;5.95;;;2.20;;
46835;SDS011;32573;51.290;6.926;2022-12-18T05:35:39;4.28;;;2.10;;
46835;SDS011;32573;51.290;6.926;2022-12-18T05:38:14;5.13;;;1.90;;
46835;SDS011;32573;51.290;6.926;2022-12-18T05:40:44;5.82;;;2.00;;
46835;SDS011;32573;51.290;6.926;2022-12-18T05:43:14;5.10;;;2.03;;
46835;SDS011;32573;51.290;6.926;2022-12-18T05:45:48;4.65;;;2.25;;
46835;SDS011;32573;51.290;6.926;2022-12-18T05:48:22;4.18;;;1.98;;
46835;SDS011;32573;51.290;6.926;2022-12-18T05:50:51;4.75;;;2.05;;
46835;SDS011;32573;51.290;6.926;2022-12-18T05:53:21;6.63;;;2.30;;
46835;SDS011;32573;51.290;6.926;2022-12-18T05:55:51;4.50;;;1.83;;
46835;SDS011;32573;51.290;6.926;2022-12-18T05:58:21;5.05;;;2.20;;
46835;SDS011;32573;51.290;6.926;2022-12-18T06:00:50;5.65;;;2.55;;
46835;SDS011;32573;51.290;6.926;2022-12-18T06:03:20;4.30;;;2.30;;
46835;SDS011;32573;51.290;6.926;2022-12-18T06:05:50;5.85;;;2.33;;
46835;SDS011;32573;51.290;6.926;2022-12-18T06:08:20;4.72;;;2.05;;
46835;SDS011;32573;51.290;6.926;2022-12-18T06:10:51;6.00;;;2.15;;
46835;SDS011;32573;51.290;6.926;2022-12-18T06:13:21;5.22;;;2.47;;
46835;SDS011;32573;51.290;6.926;2022-12-18T06:15:51;5.00;;;1.90;;
46835;SDS011;32573;51.290;6.926;2022-12-18T06:18:20;4.57;;;2.22;;
46835;SDS011;32573;51.290;6.926;2022-12-18T06:20:55;4.75;;;2.10;;
46835;SDS011;32573;51.290;6.926;2022-12-18T06:23:25;5.60;;;2.08;;
46835;SDS011;32573;51.290;6.926;2022-12-18T06:25:55;5.90;;;2.00;;
46835;SDS011;32573;51.290;6.926;2022-12-18T06:28:25;4.82;;;2.03;;
46835;SDS011;32573;51.290;6.926;2022-12-18T06:30:54;3.92;;;1.85;;
46835;SDS011;32573;51.290;6.926;2022-12-18T06:33:27;3.50;;;1.60;;
46835;SDS011;32573;51.290;6.926;2022-12-18T06:36:00;4.70;;;2.15;;
46835;SDS011;32573;51.290;6.926;2022-12-18T06:38:31;4.15;;;2.10;;
46835;SDS011;32573;51.290;6.926;2022-12-18T06:41:05;6.65;;;2.50;;
46835;SDS011;32573;51.290;6.926;2022-12-18T06:43:36;6.47;;;2.53;;
46835;SDS011;32573;51.290;6.926;2022-12-18T06:46:10;6.10;;;2.28;;
46835;SDS011;32573;51.290;6.926;2022-12-18T06:48:40;5.65;;;2.38;;
46835;SDS011;32573;51.290;6.926;2022-12-18T06:51:12;5.18;;;2.25;;
46835;SDS011;32573;51.290;6.926;2022-12-18T06:53:45;6.63;;;2.67;;
46835;SDS011;32573;51.290;6.926;2022-12-18T06:56:17;6.38;;;2.53;;
46835;SDS011;32573;51.290;6.926;2022-12-18T06:58:50;7.35;;;2.67;;
46835;SDS011;32573;51.290;6.926;2022-12-18T07:01:20;7.15;;;2.67;;
46835;SDS011;32573;51.290;6.926;2022-12-18T07:03:51;5.88;;;2.80;;
46835;SDS011;32573;51.290;6.926;2022-12-18T07:06:24;6.93;;;2.95;;
46835;SDS011;32573;51.290;6.926;2022-12-18T07:08:54;7.97;;;3.15;;
46835;SDS011;32573;51.290;6.926;2022-12-18T07:11:24;6.18;;;2.70;;
46835;SDS011;32573;51.290;6.926;2022-12-18T07:13:54;6.05;;;2.85;;
46835;SDS011;32573;51.290;6.926;2022-12-18T07:16:32;5.72;;;2.58;;
46835;SDS011;32573;51.290;6.926;2022-12-18T07:19:02;7.93;;;3.67;;
46835;SDS011;32573;51.290;6.926;2022-12-18T07:21:32;6.50;;;2.75;;
46835;SDS011;32573;51.290;6.926;2022-12-18T07:24:02;5.78;;;2.50;;
46835;SDS011;32573;51.290;6.926;2022-12-18T07:26:32;6.50;;;2.70;;
46835;SDS011;32573;51.290;6.926;2022-12-18T07:29:02;5.85;;;2.50;;
46835;SDS011;32573;51.290;6.926;2022-12-18T07:31:32;7.30;;;2.90;;
46835;SDS011;32573;51.290;6.926;2022-12-18T07:34:04;6.25;;;3.08;;
46835;SDS011;32573;51.290;6.926;2022-12-18T07:36:40;7.80;;;3.15;;
46835;SDS011;32573;51.290;6.926;2022-12-18T07:39:10;6.20;;;2.90;;
46835;SDS011;32573;51.290;6.926;2022-12-18T07:41:43;7.05;;;3.05;;
46835;SDS011;32573;51.290;6.926;2022-12-18T07:44:33;8.48;;;3.22;;
46835;SDS011;32573;51.290;6.926;2022-12-18T07:47:03;6.55;;;2.95;;
46835;SDS011;32573;51.290;6.926;2022-12-18T07:49:38;6.43;;;2.67;;
46835;SDS011;32573;51.290;6.926;2022-12-18T07:52:11;6.35;;;2.72;;
46835;SDS011;32573;51.290;6.926;2022-12-18T07:54:41;6.03;;;2.97;;
46835;SDS011;32573;51.290;6.926;2022-12-18T07:57:17;8.43;;;3.08;;
46835;SDS011;32573;51.290;6.926;2022-12-18T08:00:09;6.72;;;3.20;;
46835;SDS011;32573;51.290;6.926;2022-12-18T08:02:40;8.38;;;3.05;;
46835;SDS011;32573;51.290;6.926;2022-12-18T08:05:10;6.45;;;2.95;;
46835;SDS011;32573;51.290;6.926;2022-12-18T08:07:43;6.80;;;3.10;;
46835;SDS011;32573;51.290;6.926;2022-12-18T08:10:16;8.32;;;3.40;;
46835;SDS011;32573;51.290;6.926;2022-12-18T08:12:48;7.93;;;3.03;;
46835;SDS011;32573;51.290;6.926;2022-12-18T08:15:18;5.90;;;2.78;;
46835;SDS011;32573;51.290;6.926;2022-12-18T08:17:47;7.15;;;2.90;;
46835;SDS011;32573;51.290;6.926;2022-12-18T08:20:16;7.22;;;3.85;;
46835;SDS011;32573;51.290;6.926;2022-12-18T08:22:47;8.70;;;3.80;;
46835;SDS011;32573;51.290;6.926;2022-12-18T08:25:21;8.57;;;3.80;;
46835;SDS011;32573;51.290;6.926;2022-12-18T08:27:53;8.48;;;3.42;;
46835;SDS011;32573;51.290;6.926;2022-12-18T08:30:24;7.53;;;3.38;;
46835;SDS011;32573;51.290;6.926;2022-12-18T08:32:53;8.80;;;3.38;;
46835;SDS011;32573;51.290;6.926;2022-12-18T08:35:23;8.48;;;3.60;;
46835;SDS011;32573;51.290;6.926;2022-12-18T08:40:48;9.95;;;4.20;;
46835;SDS011;32573;51.290;6.926;2022-12-18T08:43:18;7.90;;;3.50;;
46835;SDS011;32573;51.290;6.926;2022-12-18T08:46:06;8.00;;;3.75;;
46835;SDS011;32573;51.290;6.926;2022-12-18T08:48:36;8.05;;;3.70;;
46835;SDS011;32573;51.290;6.926;2022-12-18T08:51:06;7.50;;;3.20;;
46835;SDS011;32573;51.290;6.926;2022-12-18T08:53:38;7.18;;;3.10;;
46835;SDS011;32573;51.290;6.926;2022-12-18T08:56:08;8.32;;;4.00;;
46835;SDS011;32573;51.290;6.926;2022-12-18T08:58:38;8.90;;;3.67;;
46835;SDS011;32573;51.290;6.926;2022-12-18T09:01:09;7.13;;;2.97;;
46835;SDS011;32573;51.290;6.926;2022-12-18T09:03:40;7.50;;;3.53;;
46835;SDS011;32573;51.290;6.926;2022-12-18T09:06:13;7.75;;;3.75;;
46835;SDS011;32573;51.290;6.926;2022-12-18T09:08:48;9.30;;;3.50;;
46835;SDS011;32573;51.290;6.926;2022-12-18T09:11:19;8.20;;;3.13;;
46835;SDS011;32573;51.290;6.926;2022-12-18T09:13:50;8.20;;;4.07;;
46835;SDS011;32573;51.290;6.926;2022-12-18T09:16:22;6.90;;;3.55;;
46835;SDS011;32573;51.290;6.926;2022-12-18T09:18:59;9.45;;;5.03;;
46835;SDS011;32573;51.290;6.926;2022-12-18T09:21:29;7.07;;;3.28;;
46835;SDS011;32573;51.290;6.926;2022-12-18T09:24:05;7.72;;;3.20;;
46835;SDS011;32573;51.290;6.926;2022-12-18T09:26:35;6.72;;;3.00;;
46835;SDS011;32573;51.290;6.926;2022-12-18T09:29:06;6.85;;;3.85;;
46835;SDS011;32573;51.290;6.926;2022-12-18T09:31:37;7.00;;;3.20;;
46835;SDS011;32573;51.290;6.926;2022-12-18T09:34:08;6.57;;;3.15;;
46835;SDS011;32573;51.290;6.926;2022-12-18T09:36:38;6.50;;;2.85;;
46835;SDS011;32573;51.290;6.926;2022-12-18T09:39:09;6.95;;;2.95;;
46835;SDS011;32573;51.290;6.926;2022-12-18T09:41:39;8.07;;;3.40;;
46835;SDS011;32573;51.290;6.926;2022-12-18T09:44:17;8.23;;;3.78;;
46835;SDS011;32573;51.290;6.926;2022-12-18T09:47:01;8.15;;;3.35;;
46835;SDS011;32573;51.290;6.926;2022-12-18T09:49:40;8.30;;;3.20;;
46835;SDS011;32573;51.290;6.926;2022-12-18T09:52:14;7.95;;;3.65;;
46835;SDS011;32573;51.290;6.926;2022-12-18T09:54:51;8.73;;;3.85;;
46835;SDS011;32573;51.290;6.926;2022-12-18T09:57:49;9.60;;;3.92;;
46835;SDS011;32573;51.290;6.926;2022-12-18T10:00:24;6.90;;;3.33;;
46835;SDS011;32573;51.290;6.926;2022-12-18T10:02:58;7.05;;;3.22;;
46835;SDS011;32573;51.290;6.926;2022-12-18T10:05:33;7.85;;;3.63;;
46835;SDS011;32573;51.290;6.926;2022-12-18T10:08:10;6.85;;;3.33;;
46835;SDS011;32573;51.290;6.926;2022-12-18T10:10:48;6.70;;;3.60;;
46835;SDS011;32573;51.290;6.926;2022-12-18T10:13:28;8.25;;;3.72;;
46835;SDS011;32573;51.290;6.926;2022-12-18T10:16:09;7.07;;;3.28;;
46835;SDS011;32573;51.290;6.926;2022-12-18T10:18:57;8.02;;;3.38;;
46835;SDS011;32573;51.290;6.926;2022-12-18T10:21:36;6.43;;;3.15;;
46835;SDS011;32573;51.290;6.926;2022-12-18T10:24:13;7.25;;;3.42;;
46835;SDS011;32573;51.290;6.926;2022-12-18T10:26:54;7.55;;;3.78;;
46835;SDS011;32573;51.290;6.926;2022-12-18T10:29:31;7.45;;;3.70;;
46835;SDS011;32573;51.290;6.926;2022-12-18T10:32:03;7.63;;;3.25;;
46835;SDS011;32573;51.290;6.926;2022-12-18T10:34:33;8.52;;;3.72;;
46835;SDS011;32573;51.290;6.926;2022-12-18T10:37:06;8.88;;;4.13;;
46835;SDS011;32573;51.290;6.926;2022-12-18T10:39:44;8.80;;;3.65;;
46835;SDS011;32573;51.290;6.926;2022-12-18T10:42:17;9.85;;;4.10;;
46835;SDS011;32573;51.290;6.926;2022-12-18T10:44:53;7.03;;;3.53;;
46835;SDS011;32573;51.290;6.926;2022-12-18T10:47:30;6.57;;;3.38;;
46835;SDS011;32573;51.290;6.926;2022-12-18T10:50:02;7.28;;;3.75;;
46835;SDS011;32573;51.290;6.926;2022-12-18T10:52:37;7.22;;;3.53;;
46835;SDS011;32573;51.290;6.926;2022-12-18T10:55:15;8.50;;;3.70;;
46835;SDS011;32573;51.290;6.926;2022-12-18T10:57:51;9.05;;;4.03;;
46835;SDS011;32573;51.290;6.926;2022-12-18T11:00:25;8.80;;;4.05;;
46835;SDS011;32573;51.290;6.926;2022-12-18T11:02:56;7.60;;;3.90;;
46835;SDS011;32573;51.290;6.926;2022-12-18T11:05:28;8.50;;;4.03;;
46835;SDS011;32573;51.290;6.926;2022-12-18T11:08:01;9.48;;;4.20;;
46835;SDS011;32573;51.290;6.926;2022-12-18T11:10:32;8.27;;;4.28;;
46835;SDS011;32573;51.290;6.926;2022-12-18T11:13:15;7.40;;;3.92;;
46835;SDS011;32573;51.290;6.926;2022-12-18T11:15:47;9.50;;;4.22;;
46835;SDS011;32573;51.290;6.926;2022-12-18T11:18:17;8.60;;;3.70;;
46835;SDS011;32573;51.290;6.926;2022-12-18T11:20:54;8.57;;;4.03;;
46835;SDS011;32573;51.290;6.926;2022-12-18T11:23:26;8.25;;;3.97;;
46835;SDS011;32573;51.290;6.926;2022-12-18T11:25:57;8.93;;;4.40;;
46835;SDS011;32573;51.290;6.926;2022-12-18T11:28:39;9.73;;;4.40;;
46835;SDS011;32573;51.290;6.926;2022-12-18T11:31:18;9.57;;;4.55;;
46835;SDS011;32573;51.290;6.926;2022-12-18T11:33:57;8.85;;;4.10;;
46835;SDS011;32573;51.290;6.926;2022-12-18T11:36:55;9.63;;;3.80;;
46835;SDS011;32573;51.290;6.926;2022-12-18T11:39:34;8.43;;;4.32;;
46835;SDS011;32573;51.290;6.926;2022-12-18T11:42:09;8.80;;;3.95;;
46835;SDS011;32573;51.290;6.926;2022-12-18T11:44:51;7.35;;;4.03;;
46835;SDS011;32573;51.290;6.926;2022-12-18T11:47:28;9.50;;;4.05;;
46835;SDS011;32573;51.290;6.926;2022-12-18T11:50:10;7.95;;;3.92;;
46835;SDS011;32573;51.290;6.926;2022-12-18T11:52:44;8.93;;;4.13;;
46835;SDS011;32573;51.290;6.926;2022-12-18T11:55:23;9.73;;;4.47;;
46835;SDS011;32573;51.290;6.926;2022-12-18T11:58:07;9.02;;;4.30;;
46835;SDS011;32573;51.290;6.926;2022-12-18T12:00:47;9.80;;;4.60;;
46835;SDS011;32573;51.290;6.926;2022-12-18T12:03:33;9.80;;;4.40;;
46835;SDS011;32573;51.290;6.926;2022-12-18T12:06:17;8.85;;;4.15;;
46835;SDS011;32573;51.290;6.926;2022-12-18T12:08:55;10.15;;;4.93;;
46835;SDS011;32573;51.290;6.926;2022-12-18T12:11:36;9.20;;;4.13;;
46835;SDS011;32573;51.290;6.926;2022-12-18T12:14:30;8.13;;;4.05;;
46835;SDS011;32573;51.290;6.926;2022-12-18T12:17:14;11.15;;;4.80;;
46835;SDS011;32573;51.290;6.926;2022-12-18T12:19:52;8.85;;;4.00;;
46835;SDS011;32573;51.290;6.926;2022-12-18T12:22:33;9.45;;;4.30;;
46835;SDS011;32573;51.290;6.926;2022-12-18T12:25:19;9.05;;;4.30;;
46835;SDS011;32573;51.290;6.926;2022-12-18T12:27:59;10.82;;;4.78;;
46835;SDS011;32573;51.290;6.926;2022-12-18T12:30:47;10.23;;;4.60;;
46835;SDS011;32573;51.290;6.926;2022-12-18T12:33:29;8.55;;;4.35;;
46835;SDS011;32573;51.290;6.926;2022-12-18T12:36:13;9.60;;;4.35;;
46835;SDS011;32573;51.290;6.926;2022-12-18T12:38:55;10.40;;;4.65;;
46835;SDS011;32573;51.290;6.926;2022-12-18T12:41:30;10.00;;;4.45;;
46835;SDS011;32573;51.290;6.926;2022-12-18T12:44:22;9.80;;;4.65;;
46835;SDS011;32573;51.290;6.926;2022-12-18T12:47:00;11.77;;;5.18;;
46835;SDS011;32573;51.290;6.926;2022-12-18T12:49:45;10.98;;;5.00;;
46835;SDS011;32573;51.290;6.926;2022-12-18T12:52:20;10.25;;;4.50;;
46835;SDS011;32573;51.290;6.926;2022-12-18T12:55:00;9.90;;;5.20;;
46835;SDS011;32573;51.290;6.926;2022-12-18T12:57:42;12.07;;;5.30;;
46835;SDS011;32573;51.290;6.926;2022-12-18T13:00:18;12.05;;;5.25;;
46835;SDS011;32573;51.290;6.926;2022-12-18T13:02:50;10.35;;;4.78;;
46835;SDS011;32573;51.290;6.926;2022-12-18T13:05:28;13.95;;;5.20;;
46835;SDS011;32573;51.290;6.926;2022-12-18T13:08:07;11.25;;;5.18;;
46835;SDS011;32573;51.290;6.926;2022-12-18T13:10:40;12.30;;;6.00;;
46835;SDS011;32573;51.290;6.926;2022-12-18T13:13:13;11.75;;;5.40;;
46835;SDS011;32573;51.290;6.926;2022-12-18T13:16:08;15.38;;;5.93;;
46835;SDS011;32573;51.290;6.926;2022-12-18T13:18:38;12.07;;;5.32;;
46835;SDS011;32573;51.290;6.926;2022-12-18T13:21:23;12.40;;;6.10;;
46835;SDS011;32573;51.290;6.926;2022-12-18T13:23:57;14.25;;;6.03;;
46835;SDS011;32573;51.290;6.926;2022-12-18T13:26:43;12.30;;;6.18;;
46835;SDS011;32573;51.290;6.926;2022-12-18T13:29:13;11.60;;;6.00;;
46835;SDS011;32573;51.290;6.926;2022-12-18T13:32:19;11.18;;;6.03;;
46835;SDS011;32573;51.290;6.926;2022-12-18T13:38:01;12.90;;;5.97;;
46835;SDS011;32573;51.290;6.926;2022-12-18T13:43:27;13.90;;;6.97;;
46835;SDS011;32573;51.290;6.926;2022-12-18T13:46:21;13.77;;;6.68;;
46835;SDS011;32573;51.290;6.926;2022-12-18T13:48:57;12.38;;;6.40;;
46835;SDS011;32573;51.290;6.926;2022-12-18T13:51:32;12.82;;;6.20;;
46835;SDS011;32573;51.290;6.926;2022-12-18T13:54:18;13.88;;;6.70;;
46835;SDS011;32573;51.290;6.926;2022-12-18T13:56:54;14.75;;;6.95;;
46835;SDS011;32573;51.290;6.926;2022-12-18T13:59:25;11.68;;;6.40;;
46835;SDS011;32573;51.290;6.926;2022-12-18T14:01:57;12.80;;;6.78;;
46835;SDS011;32573;51.290;6.926;2022-12-18T14:04:33;15.95;;;7.55;;
46835;SDS011;32573;51.290;6.926;2022-12-18T14:07:04;12.50;;;6.13;;
46835;SDS011;32573;51.290;6.926;2022-12-18T14:09:39;15.07;;;7.68;;
46835;SDS011;32573;51.290;6.926;2022-12-18T14:12:14;14.43;;;7.05;;
46835;SDS011;32573;51.290;6.926;2022-12-18T14:15:10;11.73;;;6.40;;
46835;SDS011;32573;51.290;6.926;2022-12-18T14:18:02;15.23;;;7.05;;
46835;SDS011;32573;51.290;6.926;2022-12-18T14:20:47;13.60;;;6.80;;
46835;SDS011;32573;51.290;6.926;2022-12-18T14:23:26;14.93;;;6.80;;
46835;SDS011;32573;51.290;6.926;2022-12-18T14:26:01;16.17;;;7.53;;
46835;SDS011;32573;51.290;6.926;2022-12-18T14:28:32;15.70;;;6.95;;
46835;SDS011;32573;51.290;6.926;2022-12-18T14:31:01;12.70;;;6.80;;
46835;SDS011;32573;51.290;6.926;2022-12-18T14:33:31;13.90;;;7.00;;
46835;SDS011;32573;51.290;6.926;2022-12-18T14:36:01;15.75;;;7.05;;
46835;SDS011;32573;51.290;6.926;2022-12-18T14:38:34;15.80;;;6.95;;
46835;SDS011;32573;51.290;6.926;2022-12-18T14:41:06;15.18;;;6.72;;
46835;SDS011;32573;51.290;6.926;2022-12-18T14:43:39;13.07;;;6.72;;
46835;SDS011;32573;51.290;6.926;2022-12-18T14:46:25;13.65;;;6.57;;
46835;SDS011;32573;51.290;6.926;2022-12-18T14:49:17;14.13;;;6.78;;
46835;SDS011;32573;51.290;6.926;2022-12-18T14:51:50;14.77;;;7.50;;
46835;SDS011;32573;51.290;6.926;2022-12-18T14:54:23;11.45;;;5.63;;
46835;SDS011;32573;51.290;6.926;2022-12-18T14:56:59;14.90;;;7.13;;
46835;SDS011;32573;51.290;6.926;2022-12-18T14:59:32;15.50;;;7.63;;
46835;SDS011;32573;51.290;6.926;2022-12-18T15:02:09;16.05;;;7.78;;
46835;SDS011;32573;51.290;6.926;2022-12-18T15:04:46;16.48;;;7.50;;
46835;SDS011;32573;51.290;6.926;2022-12-18T15:07:18;18.98;;;7.32;;
46835;SDS011;32573;51.290;6.926;2022-12-18T15:10:00;16.67;;;8.65;;
46835;SDS011;32573;51.290;6.926;2022-12-18T15:12:35;17.95;;;7.50;;
46835;SDS011;32573;51.290;6.926;2022-12-18T15:18:11;15.88;;;7.68;;
46835;SDS011;32573;51.290;6.926;2022-12-18T15:20:43;13.90;;;6.82;;
46835;SDS011;32573;51.290;6.926;2022-12-18T15:23:19;15.85;;;6.97;;
46835;SDS011;32573;51.290;6.926;2022-12-18T15:25:57;17.67;;;8.20;;
46835;SDS011;32573;51.290;6.926;2022-12-18T15:28:32;15.13;;;7.40;;
46835;SDS011;32573;51.290;6.926;2022-12-18T15:31:17;14.18;;;7.40;;
46835;SDS011;32573;51.290;6.926;2022-12-18T15:34:00;15.13;;;7.70;;
46835;SDS011;32573;51.290;6.926;2022-12-18T15:36:38;15.52;;;7.82;;
46835;SDS011;32573;51.290;6.926;2022-12-18T15:39:10;14.80;;;7.68;;
46835;SDS011;32573;51.290;6.926;2022-12-18T15:41:40;13.80;;;6.82;;
46835;SDS011;32573;51.290;6.926;2022-12-18T15:44:33;14.77;;;7.07;;